Список аэропортов
Фактическая погода:

21 января, 13:00
Температура: +7°C (+5.7*)
Ветер: южный 2 м/с
Давление: *772 мм
Без существ. явл.
Время (МСК)Темп. СВетерВлажностьДавлениеОблачностьОсадки
09:000С, 1 м/с99%1031 гПас прояснениями
10:000СЗ, 1 м/с99%1032 гПаоблачно
11:000СЗ, 1 м/с99%1032 гПаоблачно
12:00+1СЗ, 1 м/с98%1032 гПас прояснениями
13:00+5Штиль 85%1031 гПаясно
14:00+9Штиль 74%1029 гПаясно
15:00+12СЗ, 1 м/с61%1029 гПаясно
16:00+14СЗ, 1 м/с55%1028 гПаясно
17:00+15ЮЗ, 1 м/с53%1027 гПаясно
18:00+15Ю, 2 м/с53%1027 гПаясно
19:00+15Ю, 2 м/с55%1027 гПаясно
20:00+13Ю, 2 м/с62%1028 гПаясно
21:00+11ЮВ, 2 м/с73%1029 гПаясно
22:00+9ЮВ, 1 м/с81%1030 гПаясно
23:00+8СВ, 1 м/с88%1030 гПаясно
22 января
00:00+6СВ, 1 м/с93%1031 гПаясно
01:00+5СЗ, 1 м/с96%1031 гПаясно
02:00+4СЗ, 1 м/с97%1031 гПаясно
03:00+4СЗ, 1 м/с98%1032 гПаясно
04:00+2СЗ, 1 м/с99%1032 гПамалооблачно
05:00+2С, 1 м/с100%1031 гПамалооблачно
06:00+2С, 1 м/с100%1031 гПас прояснениями
07:00+1С, 1 м/с100%1031 гПаоблачно
08:00+1С, 1 м/с100%1032 гПаоблачно
09:00+1С, 1 м/с100%1032 гПаоблачно
10:00+1С, 2 м/с100%1032 гПаоблачно
11:00+1С, 1 м/с99%1032 гПаоблачно
12:00+2С, 1 м/с97%1031 гПаоблачно
13:00+5Штиль 88%1030 гПас прояснениями
14:00+7Штиль 82%1029 гПаясно
15:00+10ЮВ, 1 м/с71%1028 гПаясно
16:00+11Ю, 1 м/с63%1027 гПаясно
17:00+12З, 1 м/с59%1027 гПаясно
18:00+13ЮЗ, 1 м/с56%1027 гПаясно
19:00+13ЮЗ, 2 м/с56%1026 гПаясно
20:00+11ЮЗ, 1 м/с64%1028 гПаясно
21:00+8Штиль 76%1029 гПаясно
22:00+7Штиль 82%1029 гПаясно
23:00+7С, 2 м/с81%1030 гПаясно
23 января
00:00+5С, 2 м/с89%1031 гПаясно
01:00+5С, 2 м/с92%1031 гПаясно
02:00+4С, 2 м/с95%1031 гПамалооблачно
03:00+3С, 2 м/с95%1032 гПамалооблачно
04:00+2С, 2 м/с97%1031 гПас прояснениями
05:00+2С, 1 м/с98%1031 гПаоблачно
06:00+2СЗ, 2 м/с98%1031 гПаоблачно
07:00+1СЗ, 1 м/с98%1031 гПамалооблачно
08:00+1С, 3 м/с98%1031 гПас прояснениями
09:00+1С, 1 м/с99%1031 гПаоблачно